Time;durP1;ratioP1;P1;durP2;ratioP2;P2;SDS_P1;SDS_P2;PMS_P1;PMS_P2;Temp;Humidity;BMP_temperature;BMP_pressure;BME280_temperature;BME280_humidity;BME280_pressure;Samples;Min_cycle;Max_cycle;Signal;HPM_P1;HPM_P2
2021/06/19 00:02:07;;;;;;;16.95;4.25;;;;;;;31.78;32.78;96578.38;4931453;28;20437;-30
2021/06/19 00:04:33;;;;;;;12.10;3.55;;;;;;;31.79;33.39;96593.31;4938064;28;21123;-35
2021/06/19 00:07:01;;;;;;;15.23;4.30;;;;;;;31.80;33.19;96647.13;4930561;28;20262;-34
2021/06/19 00:09:27;;;;;;;9.35;3.75;;;;;;;31.76;33.28;96712.78;4955500;28;20030;-33
2021/06/19 00:11:52;;;;;;;13.65;4.07;;;;;;;31.80;33.04;96746.03;4928048;28;20038;-36
2021/06/19 00:14:18;;;;;;;20.35;4.47;;;;;;;31.81;32.95;96691.19;4929969;28;20031;-36
2021/06/19 00:16:43;;;;;;;18.33;4.85;;;;;;;31.80;33.58;96670.97;4932503;28;20076;-34
2021/06/19 00:19:09;;;;;;;25.67;5.57;;;;;;;31.78;33.81;96716.13;4929603;28;21264;-36
2021/06/19 00:21:34;;;;;;;26.45;5.35;;;;;;;31.77;33.42;96730.34;4943867;28;20256;-37
2021/06/19 00:24:00;;;;;;;23.15;5.75;;;;;;;31.76;33.80;96717.22;4930886;28;20151;-35
2021/06/19 00:26:25;;;;;;;18.40;5.60;;;;;;;31.76;33.79;96704.84;4924985;28;20035;-33
2021/06/19 00:28:50;;;;;;;17.27;4.80;;;;;;;31.75;33.90;96689.91;4930421;28;20093;-38
2021/06/19 00:31:16;;;;;;;15.52;4.80;;;;;;;31.74;34.14;96677.59;4932125;28;20077;-36
2021/06/19 00:33:41;;;;;;;18.92;4.60;;;;;;;31.75;34.16;96684.63;4918476;28;20803;-35
2021/06/19 00:36:07;;;;;;;16.00;4.82;;;;;;;31.74;34.36;96656.41;4924358;28;20055;-40
2021/06/19 00:38:32;;;;;;;15.80;4.88;;;;;;;31.75;34.62;96636.94;4933367;28;20031;-39
2021/06/19 00:41:19;;;;;;;16.92;4.70;;;;;;;31.74;34.83;96640.50;4932433;28;20623;-36
2021/06/19 00:43:44;;;;;;;20.25;5.18;;;;;;;31.74;34.68;96616.66;4930973;28;20120;-36
2021/06/19 00:46:10;;;;;;;15.70;4.43;;;;;;;31.75;34.71;96588.38;4931192;28;21445;-33
2021/06/19 00:48:35;;;;;;;13.20;4.25;;;;;;;31.75;34.90;96575.13;4933894;28;20590;-31
2021/06/19 00:51:01;;;;;;;16.02;4.88;;;;;;;31.76;34.99;96574.16;4931015;28;20042;-36
2021/06/19 00:53:26;;;;;;;17.17;4.72;;;;;;;31.76;34.72;96582.97;4930123;28;20031;-40
2021/06/19 00:55:51;;;;;;;18.50;4.63;;;;;;;31.76;35.34;96577.66;4930412;28;20030;-32
2021/06/19 00:58:17;;;;;;;14.50;4.53;;;;;;;31.77;35.18;96582.00;4932035;28;20129;-38
2021/06/19 01:00:42;;;;;;;16.55;4.38;;;;;;;31.80;35.14;96588.84;4928353;28;20038;-34
2021/06/19 01:03:08;;;;;;;11.95;3.92;;;;;;;31.80;35.07;96597.66;4947260;28;20592;-40
2021/06/19 01:05:33;;;;;;;13.80;4.05;;;;;;;31.80;34.97;96587.06;4941660;28;20029;-38
2021/06/19 01:07:59;;;;;;;18.98;4.40;;;;;;;31.80;35.05;96592.34;4946650;28;20031;-29
2021/06/19 01:10:25;;;;;;;16.13;4.13;;;;;;;31.83;35.32;96595.69;4947844;28;20026;-36
2021/06/19 01:12:50;;;;;;;12.85;4.40;;;;;;;31.82;35.36;96597.53;4944642;28;20365;-35
2021/06/19 01:15:18;;;;;;;9.18;3.88;;;;;;;31.81;35.29;96596.66;4942280;28;20041;-35
2021/06/19 01:17:44;;;;;;;17.02;5.18;;;;;;;31.83;35.13;96606.28;4946396;28;20053;-38
2021/06/19 01:20:14;;;;;;;12.38;4.10;;;;;;;31.84;35.82;96594.75;4944588;28;20448;-38
2021/06/19 01:22:44;;;;;;;14.95;4.43;;;;;;;31.84;35.20;96598.22;4944101;28;20060;-37
2021/06/19 01:25:11;;;;;;;16.02;4.25;;;;;;;31.85;35.28;96599.09;4965620;28;20682;-38
2021/06/19 01:27:37;;;;;;;13.80;3.90;;;;;;;31.85;35.00;96596.44;4938021;28;20039;-34
2021/06/19 01:30:05;;;;;;;9.63;3.38;;;;;;;31.85;35.72;96591.97;4938099;28;21050;-38
2021/06/19 01:32:38;;;;;;;12.02;4.20;;;;;;;31.87;35.65;96586.53;4940484;28;20134;-36
2021/06/19 01:35:04;;;;;;;8.88;3.83;;;;;;;31.87;35.55;96575.94;4943389;28;20026;-35
2021/06/19 01:37:29;;;;;;;12.85;4.18;;;;;;;31.87;35.93;96565.34;4948009;28;20039;-32
2021/06/19 01:40:12;;;;;;;14.23;4.15;;;;;;;31.88;35.71;96556.44;4945175;28;20949;-40
2021/06/19 01:42:38;;;;;;;16.55;4.47;;;;;;;31.88;35.57;96541.41;4941299;28;20023;-39
2021/06/19 01:45:04;;;;;;;9.65;3.90;;;;;;;31.88;35.90;96529.94;4935045;28;20030;-38
2021/06/19 01:47:29;;;;;;;10.55;4.10;;;;;;;31.87;35.82;96518.50;4948031;28;20062;-39
2021/06/19 01:49:55;;;;;;;13.10;3.97;;;;;;;31.87;35.73;96512.34;4950488;28;20641;-34
2021/06/19 01:52:23;;;;;;;11.52;4.10;;;;;;;31.88;35.94;96529.94;4931926;28;20027;-36
2021/06/19 01:55:23;;;;;;;14.50;4.25;;;;;;;31.87;35.72;96539.69;4948217;28;20041;-35
2021/06/19 01:57:54;;;;;;;12.15;4.05;;;;;;;31.88;35.90;96537.91;4944149;28;20248;-35
2021/06/19 02:00:31;;;;;;;10.52;3.80;;;;;;;31.86;36.23;96531.88;4947613;28;20146;-32
2021/06/19 02:02:57;;;;;;;11.70;3.83;;;;;;;31.88;36.28;96529.94;4947565;28;20086;-34
2021/06/19 02:05:23;;;;;;;9.90;3.60;;;;;;;31.88;35.93;96524.66;4941294;28;20113;-36
2021/06/19 02:07:53;;;;;;;9.80;4.03;;;;;;;31.89;36.12;96523.69;4947742;28;20968;-39
2021/06/19 02:10:19;;;;;;;12.35;3.75;;;;;;;31.89;35.47;96529.00;4948293;28;20118;-36
2021/06/19 02:12:45;;;;;;;9.57;3.97;;;;;;;31.88;35.95;96522.00;4937048;28;20031;-36
2021/06/19 02:15:10;;;;;;;14.30;3.95;;;;;;;31.88;35.46;96535.25;4938438;28;20130;-35
2021/06/19 02:17:36;;;;;;;12.20;3.85;;;;;;;31.89;36.20;96529.00;4951682;28;20061;-40
2021/06/19 02:20:02;;;;;;;9.77;3.65;;;;;;;31.89;36.17;96539.59;4944953;28;20527;-36
2021/06/19 02:22:27;;;;;;;10.45;3.85;;;;;;;31.88;35.87;96529.94;4970893;28;20736;-41
2021/06/19 02:24:53;;;;;;;11.55;4.03;;;;;;;31.90;35.78;96538.63;4940117;28;20030;-36
2021/06/19 02:27:20;;;;;;;10.75;3.53;;;;;;;31.90;36.07;96534.19;4945683;28;20034;-36
2021/06/19 02:29:45;;;;;;;11.02;3.67;;;;;;;31.91;35.63;96529.69;4950013;28;20031;-36
2021/06/19 02:32:12;;;;;;;13.02;3.92;;;;;;;31.90;35.80;96523.59;4938180;28;20046;-34
2021/06/19 02:34:37;;;;;;;10.60;4.25;;;;;;;31.90;35.86;96523.59;4945683;28;20035;-38
2021/06/19 02:37:03;;;;;;;11.50;3.80;;;;;;;31.91;36.23;96532.34;4944834;28;20066;-38
2021/06/19 02:39:29;;;;;;;8.73;3.78;;;;;;;31.90;35.36;96533.31;4959047;28;20047;-36
2021/06/19 02:41:54;;;;;;;8.75;3.67;;;;;;;31.90;36.09;96535.97;4945740;28;20035;-41
2021/06/19 02:44:20;;;;;;;8.88;3.60;;;;;;;31.89;35.81;96531.66;4946587;28;20030;-32
2021/06/19 02:46:45;;;;;;;10.45;3.63;;;;;;;31.90;36.08;96541.28;4942310;28;20038;-36
2021/06/19 02:49:11;;;;;;;9.70;3.97;;;;;;;31.89;35.42;96548.38;4946676;28;20743;-34
2021/06/19 02:51:36;;;;;;;10.43;3.97;;;;;;;31.90;35.61;96559.81;4939185;28;20775;-33
2021/06/19 02:54:01;;;;;;;8.95;3.95;;;;;;;31.90;35.42;96567.78;4942005;28;20030;-37
2021/06/19 02:56:27;;;;;;;10.32;3.92;;;;;;;31.89;35.57;96574.88;4944981;28;20606;-30
2021/06/19 02:58:52;;;;;;;12.38;3.65;;;;;;;31.89;35.48;96574.06;4945688;28;20054;-42
2021/06/19 03:01:17;;;;;;;10.85;3.67;;;;;;;31.90;35.97;96581.88;4941966;28;20035;-38
2021/06/19 03:03:43;;;;;;;11.15;3.38;;;;;;;31.90;36.19;96581.03;4945776;28;20034;-37
2021/06/19 03:06:08;;;;;;;9.75;3.47;;;;;;;31.89;35.54;96580.16;4944226;28;20034;-38
2021/06/19 03:08:33;;;;;;;14.27;3.90;;;;;;;31.89;36.03;96576.69;4944099;28;20038;-40
2021/06/19 03:10:59;;;;;;;10.65;3.85;;;;;;;31.88;36.01;96572.34;4943695;28;20050;-38
2021/06/19 03:13:24;;;;;;;11.70;4.20;;;;;;;31.87;35.70;96576.78;4947929;28;20034;-38
2021/06/19 03:15:50;;;;;;;11.20;3.97;;;;;;;31.88;35.94;96582.94;4938481;28;20519;-39
2021/06/19 03:18:15;;;;;;;13.00;3.72;;;;;;;31.90;36.31;96583.69;4947525;28;20038;-36
2021/06/19 03:20:40;;;;;;;9.23;3.92;;;;;;;31.88;36.34;96581.16;4945276;28;20038;-40
2021/06/19 03:23:06;;;;;;;8.90;3.92;;;;;;;31.88;35.93;96583.78;4939677;28;20189;-36
2021/06/19 03:25:34;;;;;;;12.13;4.00;;;;;;;31.88;36.02;96582.94;4940311;28;20026;-34
2021/06/19 03:28:01;;;;;;;9.43;3.55;;;;;;;31.87;36.23;96589.19;4944370;28;20279;-33
2021/06/19 03:30:27;;;;;;;9.80;4.10;;;;;;;31.86;36.08;96601.63;4948952;28;20035;-38
2021/06/19 03:32:53;;;;;;;10.48;4.00;;;;;;;31.86;36.47;96606.06;4974991;28;20474;-36
2021/06/19 03:35:18;;;;;;;12.70;4.45;;;;;;;31.86;35.72;96606.06;4932955;28;20054;-31
2021/06/19 03:37:47;;;;;;;10.43;3.92;;;;;;;31.85;35.97;96605.19;4931969;28;20042;-35
2021/06/19 03:40:13;;;;;;;10.27;4.00;;;;;;;31.85;36.25;96610.50;4943384;28;20950;-33
2021/06/19 03:42:39;;;;;;;7.13;3.42;;;;;;;31.86;35.76;96612.22;4944997;28;20285;-39
2021/06/19 03:45:05;;;;;;;11.77;4.32;;;;;;;31.85;36.23;96613.16;4932342;28;20149;-33
2021/06/19 03:47:30;;;;;;;17.02;4.45;;;;;;;31.85;36.62;96610.50;4945767;28;20584;-39
2021/06/19 03:49:55;;;;;;;11.55;4.22;;;;;;;31.85;35.97;96617.63;4944509;28;20026;-36
2021/06/19 03:52:21;;;;;;;14.55;4.43;;;;;;;31.85;36.25;96625.56;4938688;28;20030;-33
2021/06/19 03:54:47;;;;;;;15.75;4.97;;;;;;;31.84;36.25;96618.59;4944203;28;20027;-33
2021/06/19 03:57:24;;;;;;;12.50;4.53;;;;;;;31.83;36.42;96624.84;4940453;28;20042;-35
2021/06/19 03:59:50;;;;;;;14.98;4.78;;;;;;;31.83;35.97;96627.50;4944906;28;20030;-38
2021/06/19 04:02:16;;;;;;;13.90;5.05;;;;;;;31.83;36.12;96632.78;4973663;28;20047;-37
2021/06/19 04:04:42;;;;;;;10.40;4.15;;;;;;;31.82;36.15;96626.66;4942352;28;20509;-38
2021/06/19 04:07:07;;;;;;;15.07;4.32;;;;;;;31.82;36.84;96631.97;4931438;28;20646;-37
2021/06/19 04:09:32;;;;;;;14.02;4.30;;;;;;;31.81;36.60;96631.13;4947843;28;20038;-37
2021/06/19 04:11:58;;;;;;;9.40;4.22;;;;;;;31.81;36.28;96628.47;4940416;28;20026;-41
2021/06/19 04:14:23;;;;;;;12.15;4.18;;;;;;;31.81;36.73;96625.81;4941607;28;20105;-38
2021/06/19 04:16:48;;;;;;;13.68;4.70;;;;;;;31.81;36.96;96623.16;4944245;28;20034;-37
2021/06/19 04:19:14;;;;;;;15.10;4.85;;;;;;;31.80;36.63;96625.94;4943487;28;20597;-40
2021/06/19 04:21:39;;;;;;;12.45;4.30;;;;;;;31.81;36.38;96635.56;4944327;28;20117;-33
2021/06/19 04:24:05;;;;;;;13.70;4.72;;;;;;;31.81;36.17;96635.56;4941034;28;20038;-37
2021/06/19 04:26:30;;;;;;;17.73;5.40;;;;;;;31.80;37.00;96634.75;4943233;28;20141;-38
2021/06/19 04:28:56;;;;;;;14.27;4.70;;;;;;;31.80;36.51;96641.84;4944429;28;20019;-33
2021/06/19 04:31:21;;;;;;;16.98;5.10;;;;;;;31.79;36.55;96641.00;4941659;28;20038;-40
2021/06/19 04:33:46;;;;;;;11.63;4.50;;;;;;;31.79;36.30;96646.31;4942379;28;20026;-33
2021/06/19 04:36:13;;;;;;;13.65;4.75;;;;;;;31.78;36.43;96644.59;4946239;28;20034;-35
2021/06/19 04:38:38;;;;;;;11.50;4.68;;;;;;;31.77;37.19;96650.88;4946743;28;20685;-34
2021/06/19 04:41:08;;;;;;;18.25;4.82;;;;;;;31.78;36.66;96663.16;4949619;28;20035;-39
2021/06/19 04:43:52;;;;;;;11.50;4.47;;;;;;;31.77;36.97;96658.00;4948085;28;20030;-37
2021/06/19 04:46:17;;;;;;;16.48;5.10;;;;;;;31.76;37.24;96658.94;4948009;28;20050;-33
2021/06/19 04:48:42;;;;;;;13.52;4.80;;;;;;;31.75;36.69;96658.13;4951664;28;20027;-32
2021/06/19 04:51:08;;;;;;;9.57;4.35;;;;;;;31.74;36.73;96656.41;4944658;28;20777;-40
2021/06/19 04:53:33;;;;;;;14.20;5.13;;;;;;;31.76;36.83;96664.25;4950784;28;20030;-40
2021/06/19 04:56:02;;;;;;;14.10;5.10;;;;;;;31.76;37.12;96657.16;4948390;28;20134;-41
2021/06/19 04:58:28;;;;;;;11.52;4.57;;;;;;;31.77;36.79;96663.28;4952861;28;20609;-33
2021/06/19 05:00:54;;;;;;;14.07;4.95;;;;;;;31.77;37.02;96665.94;4940429;28;20034;-40
2021/06/19 05:03:19;;;;;;;13.40;5.18;;;;;;;31.78;36.95;96670.28;4937747;28;20042;-41
2021/06/19 05:05:45;;;;;;;10.75;4.45;;;;;;;31.79;37.47;96688.69;4934026;28;20031;-39
2021/06/19 05:08:10;;;;;;;15.68;4.95;;;;;;;31.79;36.90;96679.91;4947440;28;20702;-39
2021/06/19 05:10:36;;;;;;;11.30;4.78;;;;;;;31.79;37.69;96680.75;4949646;28;20035;-37
2021/06/19 05:13:01;;;;;;;12.23;4.47;;;;;;;31.79;37.51;96691.34;4955858;28;20039;-40
2021/06/19 05:15:27;;;;;;;13.85;4.55;;;;;;;31.76;37.40;96678.34;4939999;28;20046;-41
2021/06/19 05:17:55;;;;;;;9.55;4.68;;;;;;;31.80;37.68;96686.88;4944307;28;20035;-42
2021/06/19 05:20:21;;;;;;;10.65;4.30;;;;;;;31.79;37.86;96680.75;4945415;28;20536;-35
2021/06/19 05:22:47;;;;;;;11.45;4.53;;;;;;;31.79;37.26;96672.81;4943548;28;20085;-36
2021/06/19 05:25:13;;;;;;;13.02;4.65;;;;;;;31.81;37.21;96688.56;4980343;28;20030;-35
2021/06/19 05:27:40;;;;;;;14.88;4.97;;;;;;;31.80;37.83;96687.72;4949071;28;20045;-33
2021/06/19 05:30:06;;;;;;;12.15;4.22;;;;;;;31.81;37.67;96696.50;4943015;28;20023;-37
2021/06/19 05:32:31;;;;;;;9.15;4.38;;;;;;;31.81;37.46;96689.41;4938093;28;20777;-34
2021/06/19 05:34:56;;;;;;;12.77;4.40;;;;;;;31.81;37.92;96689.41;4950258;28;20081;-35
2021/06/19 05:37:22;;;;;;;13.18;4.95;;;;;;;31.82;37.81;96687.63;4948763;28;20550;-33
2021/06/19 05:39:47;;;;;;;15.27;4.70;;;;;;;31.83;37.73;96693.72;4947614;28;20985;-36
2021/06/19 05:42:12;;;;;;;8.00;4.15;;;;;;;31.83;37.57;96696.38;4946833;28;20027;-41
2021/06/19 05:44:38;;;;;;;11.07;4.20;;;;;;;31.84;37.86;96695.44;4945544;28;20018;-36
2021/06/19 05:47:03;;;;;;;9.77;4.55;;;;;;;31.83;37.13;96685.78;4947766;28;20022;-39
2021/06/19 05:49:29;;;;;;;13.02;4.75;;;;;;;31.84;37.37;96685.66;4949185;28;20026;-34
2021/06/19 05:51:54;;;;;;;12.18;4.15;;;;;;;31.84;37.34;96684.84;4943447;28;21080;-42
2021/06/19 05:54:20;;;;;;;13.30;4.40;;;;;;;31.84;37.92;96682.19;4945265;28;20034;-43
2021/06/19 05:56:45;;;;;;;11.05;4.50;;;;;;;31.85;37.66;96686.53;4941586;28;20026;-38
2021/06/19 05:59:10;;;;;;;14.77;5.05;;;;;;;31.84;37.65;96690.97;4941041;28;21001;-37
2021/06/19 06:01:36;;;;;;;14.23;4.80;;;;;;;31.85;37.38;96683.88;4940747;28;20777;-35
2021/06/19 06:04:01;;;;;;;16.63;4.70;;;;;;;31.85;37.84;96678.56;4951649;28;20034;-39
2021/06/19 06:06:27;;;;;;;14.25;4.40;;;;;;;31.85;37.64;96673.28;4947352;28;20058;-42
2021/06/19 06:08:52;;;;;;;11.30;4.32;;;;;;;31.85;37.33;96667.97;4944217;28;20031;-39
2021/06/19 06:11:17;;;;;;;13.60;4.80;;;;;;;31.85;37.48;96668.78;4939134;28;20026;-35
2021/06/19 06:13:43;;;;;;;11.40;4.72;;;;;;;31.85;37.50;96662.69;4940941;28;20585;-36
2021/06/19 06:16:09;;;;;;;11.55;4.35;;;;;;;31.87;37.33;96671.31;4950668;28;20035;-38
2021/06/19 06:18:34;;;;;;;9.70;4.57;;;;;;;31.86;37.86;96670.50;4933749;28;20030;-37
2021/06/19 06:21:01;;;;;;;11.43;4.55;;;;;;;31.87;38.08;96673.97;4930575;28;20042;-38
2021/06/19 06:23:26;;;;;;;16.08;5.13;;;;;;;31.87;37.97;96676.63;4946921;28;20035;-36
2021/06/19 06:25:52;;;;;;;15.82;5.68;;;;;;;31.86;37.73;96675.81;4923684;28;20031;-36
2021/06/19 06:28:17;;;;;;;12.98;5.35;;;;;;;31.87;38.03;96679.28;4931830;28;20031;-38
2021/06/19 06:30:44;;;;;;;12.88;5.20;;;;;;;31.86;38.41;96680.25;4930180;28;20558;-34
2021/06/19 06:33:09;;;;;;;12.75;5.18;;;;;;;31.80;37.99;96681.56;4949211;28;20050;-38
2021/06/19 06:35:34;;;;;;;12.65;5.70;;;;;;;31.83;38.00;96696.38;4964110;28;20035;-40
2021/06/19 06:38:00;;;;;;;16.50;5.22;;;;;;;31.80;38.54;96695.69;4929845;28;20034;-34
2021/06/19 06:40:25;;;;;;;14.40;5.50;;;;;;;31.81;38.89;96693.84;4935310;28;20030;-38
2021/06/19 06:42:51;;;;;;;16.45;6.00;;;;;;;31.79;38.59;96701.94;4943340;28;20120;-35
2021/06/19 06:45:16;;;;;;;16.48;5.82;;;;;;;31.77;39.31;96709.16;4937961;28;20030;-33
2021/06/19 06:47:41;;;;;;;15.77;5.68;;;;;;;31.75;39.00;96710.25;4937117;28;20043;-35
2021/06/19 06:50:07;;;;;;;13.23;5.57;;;;;;;31.68;39.44;96684.25;4942160;28;20061;-34
2021/06/19 06:52:33;;;;;;;14.85;5.68;;;;;;;31.73;39.64;96691.81;4938374;28;20079;-37
2021/06/19 06:54:59;;;;;;;18.65;5.90;;;;;;;31.71;39.82;96687.63;4938046;28;20030;-38
2021/06/19 06:57:24;;;;;;;15.43;5.80;;;;;;;31.70;39.90;96696.53;4938667;28;20923;-39
2021/06/19 06:59:49;;;;;;;18.48;5.30;;;;;;;31.69;39.98;96685.09;4957266;28;20038;-38
2021/06/19 07:02:15;;;;;;;15.27;5.70;;;;;;;31.67;40.02;96693.16;4948114;28;20053;-41
2021/06/19 07:04:40;;;;;;;17.02;5.63;;;;;;;31.66;39.80;96696.78;4940889;28;20027;-33
2021/06/19 07:07:06;;;;;;;16.02;6.15;;;;;;;31.65;39.94;96696.88;4940661;28;20026;-41
2021/06/19 07:09:31;;;;;;;16.90;5.38;;;;;;;31.65;40.06;96688.94;4938702;28;20227;-37
2021/06/19 07:11:57;;;;;;;20.35;5.50;;;;;;;31.64;39.57;96684.59;4944686;28;20125;-32
2021/06/19 07:14:22;;;;;;;15.75;5.78;;;;;;;31.63;40.26;96675.84;4934558;28;20038;-36
2021/06/19 07:16:48;;;;;;;13.68;5.30;;;;;;;31.63;39.94;96675.84;4942458;28;20973;-37
2021/06/19 07:19:13;;;;;;;16.73;5.50;;;;;;;31.64;39.98;96671.38;4931369;28;20059;-37
2021/06/19 07:21:38;;;;;;;18.98;5.57;;;;;;;31.64;39.44;96668.72;4934066;28;20023;-39
2021/06/19 07:24:04;;;;;;;18.70;5.95;;;;;;;31.64;39.82;96666.91;4936060;28;20042;-36
2021/06/19 07:26:29;;;;;;;16.05;5.82;;;;;;;31.60;39.36;96659.31;4935361;28;20837;-38
2021/06/19 07:28:55;;;;;;;16.15;5.88;;;;;;;31.63;39.33;96659.94;4925838;28;20064;-38
2021/06/19 07:31:20;;;;;;;16.33;5.97;;;;;;;31.62;38.82;96662.72;4936498;28;20038;-34
2021/06/19 07:33:46;;;;;;;13.32;5.35;;;;;;;31.62;38.80;96662.72;4936735;28;20035;-38
2021/06/19 07:36:11;;;;;;;15.70;5.68;;;;;;;31.62;38.90;96655.59;4940541;28;20299;-32
2021/06/19 07:38:36;;;;;;;13.77;5.97;;;;;;;31.62;39.11;96652.13;4937960;28;20454;-33
2021/06/19 07:41:02;;;;;;;9.90;5.60;;;;;;;31.62;39.24;96647.66;4967649;28;20091;-35
2021/06/19 07:43:28;;;;;;;12.68;5.88;;;;;;;31.63;39.62;96653.78;4941119;28;20054;-40
2021/06/19 07:45:53;;;;;;;10.43;5.55;;;;;;;31.63;39.48;96640.56;4929848;28;20054;-40
2021/06/19 07:48:18;;;;;;;21.30;5.70;;;;;;;31.64;38.93;96639.56;4935310;28;20030;-39
2021/06/19 07:50:44;;;;;;;13.82;5.75;;;;;;;31.62;39.24;96634.41;4929532;28;20026;-38
2021/06/19 07:53:09;;;;;;;11.75;5.03;;;;;;;31.62;38.87;96637.06;4937101;28;22652;-38
2021/06/19 07:55:35;;;;;;;31.48;6.03;;;;;;;31.62;38.71;96639.69;4937337;28;20066;-37
2021/06/19 07:58:00;;;;;;;23.40;6.20;;;;;;;31.62;39.02;96637.06;4939869;28;20119;-37
2021/06/19 08:00:30;;;;;;;21.90;5.90;;;;;;;31.62;39.12;96633.56;4935871;28;20043;-37
2021/06/19 08:02:58;;;;;;;19.95;6.00;;;;;;;31.63;38.84;96635.25;4937296;28;20267;-40
2021/06/19 08:05:24;;;;;;;14.57;5.82;;;;;;;31.64;38.90;96634.28;4935715;28;20501;-31
2021/06/19 08:07:49;;;;;;;18.60;5.50;;;;;;;31.67;38.71;96636.69;4939299;28;20046;-39
2021/06/19 08:10:15;;;;;;;12.20;5.25;;;;;;;31.66;38.73;96637.66;4937632;28;20140;-35
2021/06/19 08:12:41;;;;;;;16.35;5.90;;;;;;;31.67;39.23;96634.88;4942233;28;20038;-39
2021/06/19 08:15:06;;;;;;;10.50;5.30;;;;;;;31.69;39.08;96637.41;4940263;28;20027;-30
2021/06/19 08:17:32;;;;;;;15.13;5.47;;;;;;;31.72;39.14;96636.31;4940267;28;20117;-42
2021/06/19 08:19:57;;;;;;;16.48;6.43;;;;;;;31.72;39.29;96631.88;4939043;28;20049;-39
2021/06/19 08:22:23;;;;;;;19.13;6.40;;;;;;;31.72;39.15;96631.88;4939955;28;20042;-43
2021/06/19 08:24:48;;;;;;;13.27;6.13;;;;;;;31.73;39.58;96625.59;4938855;28;20093;-35
2021/06/19 08:27:14;;;;;;;13.35;5.63;;;;;;;31.74;38.73;96621.97;4941727;28;20037;-40
2021/06/19 08:29:39;;;;;;;21.48;5.53;;;;;;;31.75;38.97;96625.47;4942300;28;20038;-39
2021/06/19 08:32:08;;;;;;;17.83;6.30;;;;;;;31.75;39.06;96623.69;4930048;28;21952;-35
2021/06/19 08:34:33;;;;;;;18.88;5.95;;;;;;;31.77;38.68;96621.72;4941941;28;20038;-29
2021/06/19 08:36:59;;;;;;;16.17;5.75;;;;;;;31.79;38.54;96621.63;4947440;28;20035;-37
2021/06/19 08:39:24;;;;;;;20.90;6.13;;;;;;;31.80;38.81;96623.28;4940479;28;20041;-39
2021/06/19 08:41:52;;;;;;;16.60;5.70;;;;;;;31.80;38.61;96616.19;4939530;28;20039;-37
2021/06/19 08:44:24;;;;;;;22.45;5.65;;;;;;;31.83;38.04;96622.19;4954367;28;22184;-42
2021/06/19 08:46:51;;;;;;;22.95;5.90;;;;;;;31.84;38.18;96624.72;4943118;28;20062;-38
2021/06/19 08:49:17;;;;;;;22.73;5.53;;;;;;;31.86;38.06;96624.59;4942128;28;20105;-36
2021/06/19 08:51:43;;;;;;;19.88;6.20;;;;;;;31.87;38.02;96629.78;4938617;28;20166;-41
2021/06/19 08:54:08;;;;;;;13.90;5.38;;;;;;;31.89;38.76;96621.75;4949356;28;20077;-33
2021/06/19 08:56:34;;;;;;;15.95;5.75;;;;;;;31.89;38.93;96625.22;4949941;28;20022;-34
2021/06/19 08:59:01;;;;;;;15.32;5.80;;;;;;;31.90;39.02;96624.28;4951081;28;20697;-40
2021/06/19 09:01:26;;;;;;;16.52;5.68;;;;;;;31.91;38.65;96630.41;4938776;28;20042;-39
2021/06/19 09:03:51;;;;;;;16.35;5.63;;;;;;;31.92;38.71;96634.72;4941576;28;20561;-38
2021/06/19 09:06:21;;;;;;;17.83;5.55;;;;;;;31.93;38.58;96628.47;4949768;28;20071;-32
2021/06/19 09:09:05;;;;;;;15.57;5.72;;;;;;;31.95;38.27;96629.19;4940630;28;20049;-35
2021/06/19 09:11:34;;;;;;;14.20;5.40;;;;;;;31.95;38.41;96626.53;4941704;28;20033;-39
2021/06/19 09:14:05;;;;;;;11.90;5.00;;;;;;;31.96;38.27;96628.22;4939025;28;20978;-40
2021/06/19 09:16:31;;;;;;;16.98;5.43;;;;;;;31.97;38.68;96635.22;4942534;28;20031;-40
2021/06/19 09:18:57;;;;;;;12.75;5.10;;;;;;;31.97;38.80;96629.06;4946878;28;20743;-39
2021/06/19 09:21:33;;;;;;;12.05;5.50;;;;;;;31.97;38.85;96624.63;4948767;28;20480;-39
2021/06/19 09:23:59;;;;;;;14.82;5.53;;;;;;;31.94;38.69;96615.09;4945000;28;20252;-39
2021/06/19 09:26:31;;;;;;;12.88;5.00;;;;;;;31.98;38.77;96621.00;4955381;28;20489;-38
2021/06/19 09:29:11;;;;;;;12.27;4.85;;;;;;;32.00;38.63;96602.31;4950326;28;20726;-34
2021/06/19 09:31:53;;;;;;;12.05;5.38;;;;;;;32.01;38.80;96596.03;4948619;28;20023;-37
2021/06/19 09:34:31;;;;;;;24.65;6.18;;;;;;;32.02;39.45;96600.38;4978983;28;20158;-38
2021/06/19 09:36:58;;;;;;;13.75;5.00;;;;;;;32.02;39.33;96597.72;4950414;28;20117;-36
2021/06/19 09:39:28;;;;;;;12.10;4.88;;;;;;;32.03;39.08;96594.94;4953882;28;20136;-37
2021/06/19 09:42:04;;;;;;;12.73;4.97;;;;;;;32.04;39.16;96586.03;4934780;28;20113;-33
2021/06/19 09:44:42;;;;;;;12.57;4.80;;;;;;;32.05;39.08;96584.22;4980186;28;20042;-36
2021/06/19 09:47:07;;;;;;;13.95;4.70;;;;;;;32.07;39.54;96576.97;4948170;28;20031;-40
2021/06/19 09:49:38;;;;;;;12.02;4.85;;;;;;;32.06;39.00;96578.81;4947105;28;20038;-40
2021/06/19 09:52:04;;;;;;;13.30;4.53;;;;;;;32.07;39.25;96577.81;4942667;28;20652;-41
2021/06/19 09:54:29;;;;;;;12.60;5.10;;;;;;;32.06;39.72;96573.50;4937155;28;20028;-36
2021/06/19 09:56:57;;;;;;;19.35;5.20;;;;;;;32.03;39.22;96565.78;4951555;28;20097;-41
2021/06/19 09:59:36;;;;;;;13.63;4.70;;;;;;;32.07;38.95;96567.22;4944514;28;20035;-35
2021/06/19 10:02:02;;;;;;;12.85;5.25;;;;;;;32.09;39.29;96568.91;4936812;28;96355;-40
2021/06/19 10:04:30;;;;;;;15.90;4.90;;;;;;;32.09;38.80;96558.28;4938543;28;20196;-41
2021/06/19 10:06:55;;;;;;;22.27;5.22;;;;;;;32.09;38.95;96559.16;4940416;28;20030;-33
2021/06/19 10:09:21;;;;;;;16.02;5.43;;;;;;;32.10;38.34;96554.66;4944333;28;20493;-35
2021/06/19 10:11:49;;;;;;;21.02;5.22;;;;;;;32.10;38.37;96552.88;4938271;28;20042;-38
2021/06/19 10:14:17;;;;;;;13.00;5.53;;;;;;;32.10;38.48;96542.28;4938042;28;20124;-42
2021/06/19 10:16:44;;;;;;;15.38;5.13;;;;;;;32.10;38.54;96542.28;4967934;28;20031;-42
2021/06/19 10:19:09;;;;;;;16.33;5.25;;;;;;;32.12;38.49;96531.53;4945331;28;20765;-39
2021/06/19 10:21:35;;;;;;;17.83;5.80;;;;;;;32.12;38.38;96528.88;4959952;28;20162;-41
2021/06/19 10:24:00;;;;;;;13.70;4.93;;;;;;;32.13;38.63;96527.91;4939660;28;20284;-33
2021/06/19 10:26:27;;;;;;;15.90;5.35;;;;;;;32.15;38.43;96531.28;4949511;28;20764;-34
2021/06/19 10:28:55;;;;;;;15.35;5.38;;;;;;;32.15;38.53;96521.50;4938240;28;20089;-43
2021/06/19 10:31:20;;;;;;;15.25;5.00;;;;;;;32.17;38.06;96513.44;4940615;28;20026;-36
2021/06/19 10:33:46;;;;;;;16.52;5.32;;;;;;;32.15;37.44;96516.22;4937475;28;20346;-37
2021/06/19 10:36:13;;;;;;;18.25;4.85;;;;;;;32.18;36.43;96504.50;4941989;28;20084;-35
2021/06/19 10:38:48;;;;;;;16.73;4.50;;;;;;;32.16;36.73;96495.84;4931010;28;20031;-35
2021/06/19 10:41:14;;;;;;;15.98;4.72;;;;;;;32.17;35.93;96500.19;4942602;28;20534;-36
2021/06/19 10:43:44;;;;;;;12.55;4.22;;;;;;;32.17;35.83;96492.22;4940379;28;20041;-33
2021/06/19 10:46:32;;;;;;;13.80;4.85;;;;;;;32.17;35.99;96497.53;4942010;28;20145;-40
2021/06/19 10:48:59;;;;;;;19.90;5.05;;;;;;;32.15;35.93;96489.69;4938552;28;20029;-31
2021/06/19 10:51:26;;;;;;;11.73;4.50;;;;;;;32.16;36.55;96491.38;4929351;28;20062;-33
2021/06/19 10:54:17;;;;;;;20.17;5.07;;;;;;;32.17;35.90;96502.84;4962720;28;20064;-34
2021/06/19 10:56:53;;;;;;;20.05;4.78;;;;;;;32.18;35.68;96499.19;4970388;28;20593;-39
2021/06/19 10:59:23;;;;;;;19.08;4.85;;;;;;;32.19;35.63;96495.56;4939851;28;20030;-35
2021/06/19 11:01:50;;;;;;;14.88;4.85;;;;;;;32.19;35.39;96490.28;4938961;28;20161;-38
2021/06/19 11:04:36;;;;;;;12.10;4.68;;;;;;;32.19;35.86;96479.66;4935652;28;20608;-40
2021/06/19 11:07:27;;;;;;;16.83;5.38;;;;;;;32.18;35.68;96481.50;4935962;28;20084;-35
2021/06/19 11:09:53;;;;;;;15.63;4.90;;;;;;;32.19;35.81;96477.88;4937636;28;20168;-35
2021/06/19 11:12:18;;;;;;;18.83;4.65;;;;;;;32.19;36.38;96463.75;4937230;28;20130;-41
2021/06/19 11:14:47;;;;;;;19.30;4.95;;;;;;;32.17;35.49;96471.88;4943446;28;20041;-39
2021/06/19 11:17:15;;;;;;;12.50;5.00;;;;;;;32.19;35.88;96474.38;4938967;28;20034;-36
2021/06/19 11:19:47;;;;;;;20.50;4.78;;;;;;;32.18;35.59;96467.38;4936585;28;20069;-39
2021/06/19 11:22:31;;;;;;;14.70;4.30;;;;;;;32.17;35.79;96466.56;4933511;28;20033;-35
2021/06/19 11:25:37;;;;;;;24.50;5.22;;;;;;;32.18;35.68;96462.09;4937251;28;20158;-37
2021/06/19 11:28:06;;;;;;;23.85;4.55;;;;;;;32.19;36.01;96463.75;4936635;28;20034;-37